Time;durP1;ratioP1;P1;durP2;ratioP2;P2;SDS_P1;SDS_P2;PMS_P1;PMS_P2;Temp;Humidity;BMP_temperature;BMP_pressure;BME280_temperature;BME280_humidity;BME280_pressure;Samples;Min_cycle;Max_cycle;Signal;HPM_P1;HPM_P2
2023/07/24 00:02:06;;;;;;;54.03;23.60;;;;;;;28.66;38.64;100906.94;4943375;28;20081;-80
2023/07/24 00:04:33;;;;;;;48.47;22.65;;;;;;;28.34;38.69;100878.28;4937956;28;20049;-81
2023/07/24 00:07:02;;;;;;;57.88;23.08;;;;;;;28.49;38.38;100898.75;4942064;28;20074;-80
2023/07/24 00:09:30;;;;;;;50.40;23.33;;;;;;;28.45;38.29;100903.00;4958322;28;20065;-80
2023/07/24 00:11:57;;;;;;;47.45;21.58;;;;;;;28.02;38.36;100847.16;4933727;28;20047;-79
2023/07/24 00:14:24;;;;;;;46.83;22.02;;;;;;;28.26;38.34;100906.00;4953146;28;20382;-78
2023/07/24 00:16:51;;;;;;;55.25;22.33;;;;;;;28.08;38.83;100908.94;4961263;28;20469;-80
2023/07/24 00:19:18;;;;;;;47.80;21.27;;;;;;;27.91;39.02;100926.13;4953310;28;20054;-80
2023/07/24 00:21:48;;;;;;;49.97;24.60;;;;;;;27.85;39.79;100927.06;4953347;28;20603;-81
2023/07/24 00:24:15;;;;;;;49.90;22.58;;;;;;;27.76;39.89;100923.03;4944503;28;20414;-80
2023/07/24 00:26:42;;;;;;;51.10;23.17;;;;;;;27.76;40.04;100914.84;4918015;29;20281;-79
2023/07/24 00:29:12;;;;;;;49.72;21.90;;;;;;;27.65;39.76;100891.19;4904005;28;20080;-79
2023/07/24 00:31:40;;;;;;;55.95;23.85;;;;;;;27.81;40.02;100908.66;4934190;28;20387;-78
2023/07/24 00:34:07;;;;;;;55.13;23.83;;;;;;;27.79;40.36;100895.25;4931285;28;20070;-80
2023/07/24 00:36:34;;;;;;;52.53;23.58;;;;;;;27.68;40.59;100883.34;4919292;28;20054;-80
2023/07/24 00:39:01;;;;;;;51.15;22.02;;;;;;;27.81;40.87;100893.13;4926292;28;20133;-81
2023/07/24 00:41:28;;;;;;;56.15;23.02;;;;;;;27.71;41.03;100882.03;4932207;28;20059;-79
2023/07/24 00:43:55;;;;;;;54.67;24.25;;;;;;;27.57;41.26;100854.22;4936857;28;20055;-81
2023/07/24 00:46:24;;;;;;;52.47;23.70;;;;;;;27.83;41.06;100892.94;4937431;28;20057;-80
2023/07/24 00:48:52;;;;;;;53.90;24.88;;;;;;;27.75;41.66;100875.03;4946763;28;20059;-80
2023/07/24 00:51:19;;;;;;;58.67;23.88;;;;;;;27.49;43.28;100838.25;4945864;28;20053;-79
2023/07/24 00:53:47;;;;;;;47.83;22.40;;;;;;;27.81;42.19;100882.22;4952120;28;20666;-81
2023/07/24 00:56:17;;;;;;;49.38;21.13;;;;;;;27.88;46.63;100850.19;4935768;28;20055;-79
2023/07/24 00:58:44;;;;;;;44.72;20.13;;;;;;;28.18;45.82;100860.00;4943888;28;20413;-79
2023/07/24 01:01:11;;;;;;;50.70;22.27;;;;;;;28.34;43.03;100872.00;4903324;29;20066;-80
2023/07/24 01:03:39;;;;;;;51.47;23.75;;;;;;;28.19;42.04;100886.22;4926330;29;20138;-81
2023/07/24 01:06:06;;;;;;;58.60;23.80;;;;;;;28.09;42.26;100872.41;4915410;28;20421;-81
2023/07/24 01:08:32;;;;;;;56.63;22.70;;;;;;;27.97;40.55;100869.72;4957809;28;20052;-79
2023/07/24 01:11:30;;;;;;;49.10;20.23;;;;;;;27.91;39.70;100871.53;4939034;28;20137;-80
2023/07/24 01:14:06;;;;;;;61.70;23.30;;;;;;;27.81;40.38;100895.84;4955574;28;20245;-81
2023/07/24 01:16:43;;;;;;;52.85;22.35;;;;;;;27.58;40.33;100866.78;4959712;28;20245;-80
2023/07/24 01:19:24;;;;;;;53.17;22.17;;;;;;;27.43;40.90;100850.13;4954443;28;20242;-81
2023/07/24 01:22:32;;;;;;;55.63;23.33;;;;;;;26.67;40.99;100745.81;4957898;28;20490;-80
2023/07/24 01:25:24;;;;;;;50.65;22.83;;;;;;;27.45;41.36;100905.22;4919834;28;20230;-79
2023/07/24 01:27:53;;;;;;;50.75;22.63;;;;;;;27.27;41.18;100892.59;4927997;28;20227;-79
2023/07/24 01:30:21;;;;;;;54.05;23.88;;;;;;;27.32;41.36;100903.59;4937100;28;20042;-82
2023/07/24 01:32:48;;;;;;;52.90;23.00;;;;;;;27.20;41.68;100903.63;4936999;28;20055;-79
2023/07/24 01:35:15;;;;;;;57.20;21.48;;;;;;;27.05;41.93;100882.28;4932290;28;20146;-79
2023/07/24 01:37:44;;;;;;;53.58;23.30;;;;;;;27.23;41.88;100913.22;4945828;28;20043;-77
2023/07/24 01:40:12;;;;;;;48.50;21.52;;;;;;;27.23;41.53;100907.75;4929195;28;20047;-77
2023/07/24 01:42:40;;;;;;;54.33;22.50;;;;;;;27.04;42.01;100887.97;4947627;28;20050;-79
2023/07/24 01:45:08;;;;;;;53.80;22.77;;;;;;;27.13;42.10;100902.06;4963119;28;20074;-78
2023/07/24 01:47:38;;;;;;;56.90;22.90;;;;;;;27.04;42.61;100905.16;4946249;28;20061;-80
2023/07/24 01:50:07;;;;;;;50.95;22.42;;;;;;;26.70;42.63;100854.25;4947892;28;20043;-81
2023/07/24 01:52:33;;;;;;;51.35;22.90;;;;;;;26.51;43.10;100831.75;4964287;28;20050;-78
2023/07/24 01:55:04;;;;;;;61.20;23.23;;;;;;;26.89;43.16;100901.25;4950837;28;20054;-80
2023/07/24 01:57:30;;;;;;;50.97;21.90;;;;;;;26.63;43.56;100859.84;4932374;28;20074;-78
2023/07/24 01:59:57;;;;;;;50.35;22.70;;;;;;;26.70;43.80;100870.59;4944979;28;20384;-80
2023/07/24 02:02:24;;;;;;;53.45;22.98;;;;;;;26.70;44.05;100851.53;4932013;28;20162;-80
2023/07/24 02:04:51;;;;;;;46.40;22.27;;;;;;;26.71;45.69;100831.41;4933627;28;20055;-81
2023/07/24 02:07:17;;;;;;;53.03;21.77;;;;;;;27.11;48.24;100836.09;4967594;28;20142;-78
2023/07/24 02:09:45;;;;;;;51.25;22.02;;;;;;;27.01;44.06;100823.91;4942852;28;20049;-79
2023/07/24 02:12:11;;;;;;;53.55;23.38;;;;;;;27.15;43.75;100845.44;4937869;28;20065;-80
2023/07/24 02:14:42;;;;;;;49.97;23.35;;;;;;;26.99;43.91;100853.31;4943790;28;20050;-80
2023/07/24 02:17:14;;;;;;;50.80;22.75;;;;;;;26.86;44.53;100851.63;4963903;28;20137;-80
2023/07/24 02:19:41;;;;;;;54.70;22.45;;;;;;;26.93;44.77;100864.31;4962386;28;20105;-78
2023/07/24 02:22:07;;;;;;;60.10;23.50;;;;;;;26.61;44.75;100811.06;4946762;28;20084;-79
2023/07/24 02:24:34;;;;;;;50.15;22.33;;;;;;;26.83;44.52;100849.41;4945452;28;20054;-78
2023/07/24 02:27:01;;;;;;;54.10;23.63;;;;;;;26.58;44.66;100830.59;4937990;28;20050;-79
2023/07/24 02:29:28;;;;;;;51.67;21.42;;;;;;;26.67;44.72;100882.78;4943747;28;20086;-80
2023/07/24 02:31:55;;;;;;;53.78;23.05;;;;;;;26.47;45.08;100866.75;4944674;28;20436;-80
2023/07/24 02:34:24;;;;;;;54.42;23.60;;;;;;;26.42;46.65;100831.25;4939527;28;20047;-78
2023/07/24 02:36:53;;;;;;;51.38;22.52;;;;;;;26.79;49.25;100803.81;4945852;28;20055;-79
2023/07/24 02:39:20;;;;;;;50.92;21.63;;;;;;;26.97;48.35;100764.72;4938452;28;20346;-77
2023/07/24 02:41:51;;;;;;;48.13;22.70;;;;;;;27.14;44.83;100806.47;4915219;28;20349;-79
2023/07/24 02:44:21;;;;;;;50.85;22.67;;;;;;;27.12;46.77;100813.22;4915261;28;20532;-78
2023/07/24 02:46:49;;;;;;;49.67;22.05;;;;;;;26.98;46.65;100759.00;4904880;28;20062;-80
2023/07/24 02:49:19;;;;;;;53.45;23.65;;;;;;;27.04;44.13;100779.84;4936961;28;20064;-80
2023/07/24 02:51:47;;;;;;;56.75;24.20;;;;;;;26.97;43.91;100817.28;4949121;28;20113;-79
2023/07/24 02:54:13;;;;;;;50.33;22.38;;;;;;;26.85;43.92;100832.81;4954393;28;20479;-79
2023/07/24 02:56:40;;;;;;;54.20;24.20;;;;;;;26.48;44.36;100770.41;4941883;28;20545;-78
2023/07/24 02:59:14;;;;;;;52.05;23.65;;;;;;;26.63;44.63;100783.59;4917131;28;20086;-79
2023/07/24 03:01:42;;;;;;;58.08;23.23;;;;;;;26.65;44.23;100770.56;4915721;28;20467;-80
2023/07/24 03:04:09;;;;;;;50.78;22.13;;;;;;;26.76;47.49;100788.78;4949612;28;20454;-78
2023/07/24 03:06:36;;;;;;;58.75;23.38;;;;;;;26.58;45.25;100748.06;4955274;28;20072;-81
2023/07/24 03:09:03;;;;;;;58.85;23.35;;;;;;;26.95;44.94;100808.53;4970688;28;20061;-80
2023/07/24 03:11:32;;;;;;;48.15;21.88;;;;;;;26.73;43.94;100763.94;4979886;28;20145;-79
2023/07/24 03:14:02;;;;;;;56.53;21.98;;;;;;;26.75;43.67;100802.63;4969879;28;20042;-78
2023/07/24 03:16:28;;;;;;;53.72;22.92;;;;;;;26.74;44.13;100820.88;4964936;28;20050;-79
2023/07/24 03:18:56;;;;;;;49.42;22.15;;;;;;;26.62;43.81;100809.16;4969298;28;20064;-79
2023/07/24 03:21:26;;;;;;;54.50;22.40;;;;;;;26.52;44.78;100801.56;4938546;28;20046;-80
2023/07/24 03:23:53;;;;;;;55.78;22.67;;;;;;;26.70;45.08;100821.56;4963828;28;20543;-79
2023/07/24 03:26:19;;;;;;;53.65;23.38;;;;;;;26.73;44.32;100827.38;4961431;28;20047;-80
2023/07/24 03:28:46;;;;;;;56.00;22.75;;;;;;;26.72;44.17;100828.44;4942558;28;20128;-79
2023/07/24 03:31:13;;;;;;;52.80;23.10;;;;;;;26.37;45.08;100784.88;4949033;28;20050;-81
2023/07/24 03:33:40;;;;;;;50.03;21.42;;;;;;;26.46;44.81;100815.28;4951684;28;20438;-81
2023/07/24 03:36:07;;;;;;;51.42;21.50;;;;;;;26.51;45.10;100839.91;4967622;28;20060;-80
2023/07/24 03:38:34;;;;;;;52.65;21.38;;;;;;;26.56;45.78;100842.78;4960715;28;20046;-79
2023/07/24 03:41:04;;;;;;;55.65;22.50;;;;;;;26.72;45.64;100831.16;4967169;28;20145;-78
2023/07/24 03:43:30;;;;;;;54.38;23.48;;;;;;;26.60;45.36;100797.66;4964099;28;20517;-80
2023/07/24 03:46:00;;;;;;;55.80;22.55;;;;;;;26.90;45.61;100821.22;4938862;28;20274;-79
2023/07/24 03:48:27;;;;;;;58.90;23.30;;;;;;;27.13;46.07;100814.88;4940930;28;20105;-80
2023/07/24 03:51:03;;;;;;;51.88;22.75;;;;;;;27.07;45.24;100806.59;4937944;28;20200;-79
2023/07/24 03:53:30;;;;;;;49.35;22.45;;;;;;;26.78;46.16;100718.56;4974810;28;20047;-77
2023/07/24 03:55:58;;;;;;;49.67;20.17;;;;;;;27.42;48.86;100772.97;4931973;28;20077;-78
2023/07/24 03:58:25;;;;;;;54.53;22.25;;;;;;;27.60;47.92;100760.19;4925734;28;20126;-79
2023/07/24 04:00:52;;;;;;;52.13;21.85;;;;;;;27.57;45.40;100757.97;4944694;28;20061;-78
2023/07/24 04:03:21;;;;;;;42.72;21.48;;;;;;;27.54;46.91;100745.66;4950612;28;20058;-79
2023/07/24 04:05:48;;;;;;;54.17;22.25;;;;;;;27.31;44.66;100735.69;4981809;28;20060;-80
2023/07/24 04:08:15;;;;;;;50.13;20.77;;;;;;;27.20;44.67;100744.75;4917009;28;20505;-77
2023/07/24 04:10:41;;;;;;;58.15;23.48;;;;;;;27.11;45.08;100757.88;4917464;28;20058;-80
2023/07/24 04:13:11;;;;;;;54.83;21.08;;;;;;;26.85;45.36;100732.06;4924057;28;20307;-79
2023/07/24 04:15:39;;;;;;;50.08;21.27;;;;;;;26.76;45.41;100722.59;4987884;28;20576;-78
2023/07/24 04:18:06;;;;;;;52.10;20.83;;;;;;;26.79;45.84;100741.16;4988865;28;20129;-78
2023/07/24 04:20:32;;;;;;;52.28;21.48;;;;;;;26.35;46.17;100691.75;4974725;28;20056;-78
2023/07/24 04:22:59;;;;;;;52.50;22.02;;;;;;;26.20;46.70;100674.03;4925191;28;20816;-78
2023/07/24 04:25:26;;;;;;;54.85;24.25;;;;;;;26.31;46.84;100736.81;4920080;28;20101;-79
2023/07/24 04:27:53;;;;;;;53.13;22.27;;;;;;;26.11;46.52;100735.28;4940732;28;20046;-77
2023/07/24 04:30:24;;;;;;;50.08;21.42;;;;;;;26.06;46.35;100751.50;4940711;28;20057;-79
2023/07/24 04:32:52;;;;;;;49.45;21.63;;;;;;;26.14;47.10;100764.75;4925040;28;20078;-81
2023/07/24 04:35:18;;;;;;;54.75;22.95;;;;;;;25.81;47.39;100697.28;4939322;28;20081;-79
2023/07/24 04:37:48;;;;;;;47.50;21.85;;;;;;;26.08;47.60;100749.38;4954634;28;20046;-77
2023/07/24 04:40:15;;;;;;;54.47;22.80;;;;;;;26.01;47.40;100759.53;4963568;28;20732;-80
2023/07/24 04:42:41;;;;;;;52.95;22.15;;;;;;;25.85;47.30;100725.69;4932710;28;20052;-78
2023/07/24 04:45:08;;;;;;;58.17;22.52;;;;;;;26.20;47.01;100790.19;4946922;28;20046;-78
2023/07/24 04:47:36;;;;;;;52.92;22.42;;;;;;;26.13;47.19;100786.75;4940369;28;20058;-78
2023/07/24 04:50:04;;;;;;;58.10;26.00;;;;;;;25.91;47.60;100775.59;4964384;28;20495;-80
2023/07/24 04:52:30;;;;;;;58.45;24.00;;;;;;;26.17;47.12;100873.13;4958826;28;20291;-79
2023/07/24 04:54:57;;;;;;;61.20;24.38;;;;;;;26.21;47.23;100944.22;4928750;28;20684;-79
2023/07/24 04:57:24;;;;;;;55.55;22.80;;;;;;;25.87;45.79;100970.22;4948778;28;20395;-79
2023/07/24 04:59:50;;;;;;;57.55;25.98;;;;;;;26.13;46.11;101043.31;4940999;28;20089;-79
2023/07/24 05:02:17;;;;;;;53.42;21.08;;;;;;;25.98;49.09;100950.41;4960455;28;20522;-80
2023/07/24 05:04:44;;;;;;;48.15;20.13;;;;;;;26.07;50.59;100840.22;4939625;28;20146;-78
2023/07/24 05:07:10;;;;;;;45.13;19.95;;;;;;;26.28;51.41;100750.91;4946850;28;20046;-78
2023/07/24 05:09:37;;;;;;;56.10;22.48;;;;;;;26.66;50.09;100787.75;4949033;28;20054;-79
2023/07/24 05:12:07;;;;;;;48.78;19.75;;;;;;;26.50;48.32;100839.06;4939714;28;20125;-78
2023/07/24 05:14:33;;;;;;;45.80;20.65;;;;;;;26.12;49.63;100862.09;4951154;28;20054;-80
2023/07/24 05:17:00;;;;;;;48.72;21.83;;;;;;;26.26;50.52;100938.06;4966758;28;20137;-80
2023/07/24 05:19:27;;;;;;;47.20;21.13;;;;;;;25.70;49.29;100905.53;4951544;28;20054;-79
2023/07/24 05:21:53;;;;;;;48.72;21.35;;;;;;;25.99;49.02;101006.47;4955186;28;20054;-80
2023/07/24 05:24:20;;;;;;;51.35;22.85;;;;;;;25.92;49.45;101087.31;4944272;28;20050;-79
2023/07/24 05:26:47;;;;;;;52.83;24.98;;;;;;;25.87;48.79;101166.84;4955051;28;20053;-76
2023/07/24 05:29:14;;;;;;;48.53;22.25;;;;;;;25.89;49.50;101142.97;4940708;28;20129;-78
2023/07/24 05:31:41;;;;;;;56.05;24.73;;;;;;;25.54;50.66;101055.69;4947879;28;20069;-80
2023/07/24 05:34:08;;;;;;;49.95;22.50;;;;;;;25.45;51.37;101006.22;4945449;28;20043;-79
2023/07/24 05:36:35;;;;;;;64.32;25.42;;;;;;;25.52;53.64;101001.53;4930660;28;20039;-80
2023/07/24 05:39:01;;;;;;;59.10;23.45;;;;;;;25.52;53.10;100978.97;4944030;28;20104;-77
2023/07/24 05:41:33;;;;;;;54.20;22.60;;;;;;;25.36;53.94;100964.09;4910177;28;20188;-79
2023/07/24 05:44:07;;;;;;;55.28;25.42;;;;;;;25.43;53.53;100972.16;4920164;28;20038;-78
2023/07/24 05:46:34;;;;;;;53.15;23.75;;;;;;;25.32;53.62;100969.16;4943781;28;20062;-79
2023/07/24 05:49:01;;;;;;;49.83;24.35;;;;;;;25.48;53.84;100991.34;4948313;28;20058;-79
2023/07/24 05:51:28;;;;;;;48.47;21.45;;;;;;;24.37;53.50;100786.63;4948804;28;20141;-80
2023/07/24 05:53:55;;;;;;;60.13;22.90;;;;;;;25.56;53.19;100948.41;4956544;28;20046;-79
2023/07/24 05:56:22;;;;;;;55.55;23.35;;;;;;;25.63;54.11;100915.66;4959081;28;20078;-78
2023/07/24 05:58:49;;;;;;;51.60;20.77;;;;;;;25.68;54.58;100850.59;4942374;28;20046;-78
2023/07/24 06:01:16;;;;;;;52.83;22.98;;;;;;;26.05;53.00;100849.69;4935709;28;20097;-79
2023/07/24 06:03:43;;;;;;;50.13;21.75;;;;;;;26.17;51.88;100880.47;4941557;28;20062;-79
2023/07/24 06:06:12;;;;;;;49.13;21.40;;;;;;;26.26;52.41;100898.09;4945657;28;20073;-79
2023/07/24 06:08:39;;;;;;;42.50;19.75;;;;;;;26.10;52.84;100883.28;4958049;28;20047;-79
2023/07/24 06:11:08;;;;;;;43.38;19.58;;;;;;;26.37;52.65;100920.97;4951218;28;20050;-80
2023/07/24 06:13:35;;;;;;;63.47;22.77;;;;;;;26.37;51.95;100899.19;4934368;28;20074;-79
2023/07/24 06:16:04;;;;;;;46.95;20.27;;;;;;;26.46;53.02;100886.03;4951265;28;20050;-79
2023/07/24 06:18:31;;;;;;;46.83;20.55;;;;;;;26.58;50.90;100912.28;4948744;28;20097;-79
2023/07/24 06:20:58;;;;;;;45.42;20.25;;;;;;;26.89;52.21;100816.81;4953637;28;20846;-78
2023/07/24 06:23:25;;;;;;;41.95;17.52;;;;;;;27.22;50.50;100818.91;4966050;28;20442;-81
2023/07/24 06:25:52;;;;;;;47.42;19.25;;;;;;;27.27;51.38;100750.88;4944915;28;20056;-80
2023/07/24 06:28:19;;;;;;;53.50;19.23;;;;;;;27.32;49.81;100718.25;4930555;28;20372;-81
2023/07/24 06:30:46;;;;;;;42.67;19.30;;;;;;;27.87;50.04;100611.22;4918039;28;20046;-79
2023/07/24 06:33:13;;;;;;;40.58;19.08;;;;;;;27.46;47.76;100650.63;4897511;28;20521;-79
2023/07/24 06:35:39;;;;;;;35.60;17.40;;;;;;;27.38;49.01;100616.44;4914395;28;20381;-79
2023/07/24 06:38:12;;;;;;;42.72;19.70;;;;;;;27.40;48.70;100648.88;4898900;28;20177;-80
2023/07/24 06:40:47;;;;;;;47.42;20.60;;;;;;;27.26;48.37;100686.56;4933774;28;20158;-79
2023/07/24 06:43:20;;;;;;;44.17;20.45;;;;;;;27.30;48.17;100739.47;4957090;28;20078;-79
2023/07/24 06:45:54;;;;;;;44.67;20.30;;;;;;;26.62;48.02;100668.41;4960850;28;20060;-79
2023/07/24 06:48:22;;;;;;;46.55;19.00;;;;;;;27.06;48.86;100802.22;4934829;28;20323;-81
2023/07/24 06:50:49;;;;;;;46.72;21.10;;;;;;;27.12;48.97;100878.63;4919696;28;20096;-79
2023/07/24 06:53:16;;;;;;;41.05;18.75;;;;;;;26.74;49.66;100828.22;4956340;28;20148;-80
2023/07/24 06:55:42;;;;;;;44.35;19.15;;;;;;;27.28;50.27;100872.44;4924791;28;20129;-81
2023/07/24 06:58:09;;;;;;;38.58;17.13;;;;;;;27.39;51.28;100854.41;4925877;28;20475;-80
2023/07/24 07:00:40;;;;;;;47.40;20.38;;;;;;;27.45;49.89;100862.47;4948528;28;20046;-80
2023/07/24 07:03:07;;;;;;;51.95;20.35;;;;;;;27.27;49.65;100838.91;4962064;28;20506;-81
2023/07/24 07:05:34;;;;;;;41.85;20.17;;;;;;;27.40;49.72;100837.78;4942072;28;20495;-81
2023/07/24 07:08:05;;;;;;;40.40;17.88;;;;;;;27.49;51.48;100814.53;4939080;28;20077;-81
2023/07/24 07:10:32;;;;;;;45.97;19.25;;;;;;;27.58;51.50;100767.81;4952558;28;20158;-79
2023/07/24 07:12:58;;;;;;;51.78;20.67;;;;;;;28.02;50.76;100773.50;4962259;28;20465;-80
2023/07/24 07:15:25;;;;;;;39.15;18.05;;;;;;;28.49;49.21;100650.25;4954299;28;20077;-80
2023/07/24 07:17:52;;;;;;;53.03;21.17;;;;;;;27.78;49.10;100658.22;4962308;28;20069;-82
2023/07/24 07:20:19;;;;;;;43.17;20.90;;;;;;;27.87;49.26;100794.00;4964264;28;20053;-81
2023/07/24 07:22:46;;;;;;;42.15;19.33;;;;;;;27.84;50.57;100772.66;4959735;28;20123;-79
2023/07/24 07:25:13;;;;;;;50.80;19.65;;;;;;;27.85;50.29;100721.66;4922067;28;20057;-79
2023/07/24 07:27:40;;;;;;;50.42;19.70;;;;;;;27.77;50.17;100690.16;4941810;28;20144;-79
2023/07/24 07:30:07;;;;;;;50.50;19.08;;;;;;;27.87;49.67;100684.06;4965488;28;20421;-79
2023/07/24 07:32:34;;;;;;;44.28;19.67;;;;;;;27.61;49.85;100625.53;4958652;28;20075;-80
2023/07/24 07:35:00;;;;;;;39.53;17.95;;;;;;;27.82;50.47;100632.97;4962476;28;20057;-80
2023/07/24 07:37:27;;;;;;;41.95;18.10;;;;;;;28.18;49.71;100543.41;4959660;28;20056;-79
2023/07/24 07:40:00;;;;;;;46.30;18.40;;;;;;;29.02;47.70;100553.03;4970020;28;20266;-92
2023/07/24 07:42:27;;;;;;;144.40;28.70;;;;;;;28.62;47.14;100570.69;4958968;28;20163;-80
2023/07/24 07:44:54;;;;;;;74.05;23.27;;;;;;;28.70;47.82;100537.44;4967203;28;20856;-80
2023/07/24 07:47:22;;;;;;;39.70;17.92;;;;;;;28.72;46.15;100520.81;4954543;28;20112;-80
2023/07/24 07:49:49;;;;;;;46.92;16.10;;;;;;;28.36;47.07;100516.84;4949789;28;20069;-80
2023/07/24 07:52:17;;;;;;;37.13;16.30;;;;;;;28.38;46.48;100520.16;4948070;28;20548;-79
2023/07/24 07:54:50;;;;;;;48.58;17.45;;;;;;;28.36;46.91;100535.97;4970087;28;20073;-79
2023/07/24 07:57:22;;;;;;;47.67;16.38;;;;;;;28.41;47.44;100530.56;4932258;28;20186;-78
2023/07/24 07:59:49;;;;;;;43.67;17.92;;;;;;;28.51;47.49;100506.94;4935627;28;20446;-82
2023/07/24 08:02:16;;;;;;;39.30;16.10;;;;;;;28.68;47.54;100530.59;4947175;28;20058;-79
2023/07/24 08:04:43;;;;;;;41.60;17.63;;;;;;;28.79;46.85;100569.75;4970373;28;20050;-80
2023/07/24 08:07:10;;;;;;;44.10;16.63;;;;;;;28.63;47.85;100561.41;4965155;28;20049;-82
2023/07/24 08:09:41;;;;;;;37.08;17.17;;;;;;;28.66;45.69;100610.03;4958531;28;20046;-78
2023/07/24 08:12:09;;;;;;;36.85;15.55;;;;;;;28.25;47.35;100584.13;4974410;28;20046;-79
2023/07/24 08:14:36;;;;;;;40.53;17.33;;;;;;;28.31;47.41;100637.72;4965500;28;20058;-79
2023/07/24 08:17:08;;;;;;;40.42;17.90;;;;;;;28.34;47.82;100618.94;4956445;28;20081;-79
2023/07/24 08:19:35;;;;;;;43.53;17.58;;;;;;;28.37;46.85;100619.50;4953972;28;20069;-82
2023/07/24 08:22:04;;;;;;;41.17;16.55;;;;;;;28.52;47.04;100636.09;4941476;28;20043;-78
2023/07/24 08:24:35;;;;;;;51.50;16.52;;;;;;;28.59;47.12;100598.50;4910286;28;20477;-80
2023/07/24 08:27:02;;;;;;;44.05;17.65;;;;;;;28.32;46.79;100554.75;4906592;28;20047;-81
2023/07/24 08:29:29;;;;;;;33.60;16.00;;;;;;;29.08;47.03;100595.75;4943489;28;20447;-81
2023/07/24 08:32:03;;;;;;;37.45;15.50;;;;;;;29.05;44.88;100579.81;4894172;28;20264;-81
2023/07/24 08:34:37;;;;;;;30.40;14.48;;;;;;;29.14;46.17;100569.28;4906320;28;20050;-82
2023/07/24 08:37:17;;;;;;;35.53;14.68;;;;;;;29.53;44.83;100542.50;4875238;28;20055;-81
2023/07/24 08:39:46;;;;;;;37.05;17.02;;;;;;;29.60;45.21;100583.28;4907172;28;20582;-78
2023/07/24 08:42:14;;;;;;;36.80;15.13;;;;;;;29.47;45.14;100594.66;4901834;28;20049;-79
2023/07/24 08:44:46;;;;;;;29.20;14.18;;;;;;;29.12;46.46;100613.25;4899462;28;20212;-81
2023/07/24 08:47:18;;;;;;;44.83;18.48;;;;;;;28.75;45.64;100570.25;4906079;28;20129;-82
2023/07/24 08:49:47;;;;;;;34.20;15.75;;;;;;;28.87;46.67;100604.81;4924361;28;20206;-80
2023/07/24 08:52:14;;;;;;;38.45;15.23;;;;;;;29.34;45.67;100587.75;4916532;28;20414;-79
2023/07/24 08:55:07;;;;;;;38.33;15.00;;;;;;;29.49;45.99;100655.41;4913964;28;20112;-80
2023/07/24 08:57:39;;;;;;;35.63;15.70;;;;;;;29.27;46.36;100644.56;4896306;28;20051;-79
2023/07/24 09:00:06;;;;;;;42.25;17.38;;;;;;;28.82;46.95;100662.13;4907975;28;20163;-81
2023/07/24 09:02:35;;;;;;;48.20;17.55;;;;;;;28.91;47.13;100731.59;4941633;28;20410;-80
2023/07/24 09:05:03;;;;;;;41.08;18.23;;;;;;;28.66;47.04;100697.44;4963815;28;20505;-80
2023/07/24 09:07:33;;;;;;;;;;;;;;;28.92;48.08;100716.88;4962738;28;20498;-78
2023/07/24 09:09:59;;;;;;;42.53;16.05;;;;;;;29.28;47.52;100687.22;4960979;28;20113;-79
2023/07/24 09:12:26;;;;;;;40.13;16.20;;;;;;;29.13;47.47;100680.53;4948212;28;20137;-79
2023/07/24 09:15:06;;;;;;;29.55;15.05;;;;;;;29.65;46.80;100661.81;4937581;28;20070;-79
2023/07/24 09:17:34;;;;;;;42.22;16.80;;;;;;;29.03;47.95;100641.28;4947422;28;20082;-78
2023/07/24 09:20:03;;;;;;;41.80;16.33;;;;;;;29.06;48.76;100641.66;4933165;28;20046;-79
2023/07/24 09:22:30;;;;;;;43.38;18.75;;;;;;;29.06;48.97;100658.03;4928467;28;20362;-78
2023/07/24 09:24:59;;;;;;;51.13;24.33;;;;;;;29.01;49.50;100682.56;4954440;28;20043;-79
2023/07/24 09:27:31;;;;;;;50.00;22.35;;;;;;;28.75;49.71;100681.44;4947773;28;20589;-79
2023/07/24 09:30:13;;;;;;;47.90;21.30;;;;;;;28.90;50.06;100708.09;4964600;28;20039;-80
2023/07/24 09:32:43;;;;;;;52.63;20.05;;;;;;;29.06;49.52;100720.03;4964196;28;20061;-79
2023/07/24 09:35:18;;;;;;;;;;;;;;;29.16;49.45;100745.59;4959232;28;20051;-80
2023/07/24 09:37:46;;;;;;;57.50;23.73;;;;;;;29.06;49.59;100761.03;4954328;28;19926;-79
2023/07/24 09:40:15;;;;;;;42.20;18.85;;;;;;;29.07;49.85;100768.19;4947756;28;20078;-78
2023/07/24 09:42:46;;;;;;;51.30;19.48;;;;;;;29.14;49.43;100764.16;4908121;28;20098;-80
2023/07/24 09:45:34;;;;;;;47.33;21.88;;;;;;;29.17;49.36;100782.78;4941558;28;20438;-79
2023/07/24 09:48:02;;;;;;;41.58;18.90;;;;;;;28.49;49.37;100675.66;4947762;28;20601;-79
2023/07/24 09:50:35;;;;;;;58.30;24.10;;;;;;;29.23;49.51;100832.06;4937306;28;20054;-79
2023/07/24 09:53:04;;;;;;;60.47;25.52;;;;;;;29.33;49.25;100849.41;4954949;28;20099;-80
2023/07/24 09:55:40;;;;;;;65.20;26.33;;;;;;;29.16;49.47;100819.41;4938361;28;20210;-79
2023/07/24 09:58:08;;;;;;;54.00;23.48;;;;;;;29.09;49.84;100760.56;4944454;28;20682;-79
2023/07/24 10:00:35;;;;;;;52.80;23.85;;;;;;;29.51;48.06;100789.97;4938780;28;20053;-78
2023/07/24 10:03:03;;;;;;;47.50;20.58;;;;;;;29.52;48.34;100786.19;4964335;28;20058;-79
2023/07/24 10:05:31;;;;;;;49.67;22.65;;;;;;;29.46;48.59;100738.78;4951623;28;20141;-80
2023/07/24 10:07:58;;;;;;;52.97;25.05;;;;;;;29.39;48.11;100722.59;4959678;28;20102;-81
2023/07/24 10:10:27;;;;;;;50.50;22.95;;;;;;;29.31;48.91;100728.53;4957472;28;20030;-79
2023/07/24 10:12:54;;;;;;;56.10;25.13;;;;;;;29.51;48.18;100757.16;4938612;28;20406;-78
2023/07/24 10:15:21;;;;;;;55.42;26.02;;;;;;;29.25;47.65;100704.13;4946396;28;20397;-79
2023/07/24 10:17:48;;;;;;;55.17;23.95;;;;;;;29.46;48.46;100736.06;4951473;28;20054;-81
2023/07/24 10:20:17;;;;;;;49.15;18.65;;;;;;;29.44;48.04;100713.59;4940308;28;20543;-78
2023/07/24 10:22:44;;;;;;;45.70;19.00;;;;;;;29.93;47.68;100723.63;4942348;28;20491;-79
2023/07/24 10:25:11;;;;;;;37.17;18.80;;;;;;;29.74;47.99;100676.72;4952415;28;20477;-80
2023/07/24 10:27:44;;;;;;;45.97;19.77;;;;;;;29.88;48.04;100708.00;4930052;28;20601;-79
2023/07/24 10:30:11;;;;;;;50.15;19.80;;;;;;;29.77;48.31;100662.50;4932976;28;20101;-80
2023/07/24 10:33:07;;;;;;;69.32;24.60;;;;;;;29.62;49.89;100649.50;4938316;28;20050;-80
2023/07/24 10:35:42;;;;;;;42.30;19.73;;;;;;;29.94;48.90;100640.44;4924470;28;20174;-78
2023/07/24 10:38:11;;;;;;;48.75;20.92;;;;;;;30.24;47.97;100637.03;4947013;28;20507;-80
2023/07/24 10:40:40;;;;;;;46.95;20.35;;;;;;;30.33;47.67;100660.13;4925705;28;20053;-79
2023/07/24 10:43:12;;;;;;;45.10;22.70;;;;;;;30.25;48.10;100655.16;4912625;28;20226;-80
2023/07/24 10:45:39;;;;;;;51.25;25.63;;;;;;;30.39;47.84;100670.00;4927461;28;20046;-79
2023/07/24 10:48:06;;;;;;;43.55;20.25;;;;;;;30.64;47.37;100660.25;4939384;28;20070;-80
2023/07/24 10:50:42;;;;;;;44.70;22.08;;;;;;;30.54;48.37;100679.41;4931177;28;20086;-76
2023/07/24 10:53:19;;;;;;;50.45;25.52;;;;;;;30.32;48.23;100641.19;4927590;28;20292;-80
2023/07/24 10:55:48;;;;;;;56.92;27.75;;;;;;;30.63;47.15;100685.97;4924999;28;20581;-79
2023/07/24 10:58:16;;;;;;;58.22;26.13;;;;;;;30.71;47.21;100693.69;4939274;28;20057;-79
2023/07/24 11:00:48;;;;;;;47.35;25.10;;;;;;;30.48;47.40;100647.59;4953247;28;20622;-78
2023/07/24 11:03:16;;;;;;;48.85;20.58;;;;;;;30.72;47.30;100667.13;4940022;28;20058;-79
2023/07/24 11:05:45;;;;;;;39.60;20.65;;;;;;;30.80;46.99;100653.72;4948704;28;20050;-79
2023/07/24 11:08:14;;;;;;;55.58;24.08;;;;;;;30.96;46.92;100667.50;4955556;28;20050;-78
2023/07/24 11:10:52;;;;;;;53.45;21.45;;;;;;;31.25;47.13;100693.31;4941482;28;20050;-78
2023/07/24 11:13:28;;;;;;;52.17;24.30;;;;;;;31.43;47.32;100689.22;4957743;28;20129;-79
2023/07/24 11:15:55;;;;;;;43.03;22.85;;;;;;;31.72;46.53;100681.25;4955538;28;20105;-79
2023/07/24 11:18:24;;;;;;;43.90;23.55;;;;;;;31.51;46.23;100633.00;4937628;28;20058;-80